CheckWX is a tool to help pilots better visualize weather data.  It is not intended as a substitute for an official pre-flight weather briefing.

03:16:08 UTC

BKPR METAR
Priština International Airport
Prishtina, Kosovo
Current

16 mins ago

BKPR 270300Z VRB02KT 9999 SCT060 BKN090 14/12 Q1015 NOSIG
Observed
May-27 @ 03:00 UTC
Wind
  • Variable at 2 KTS
Visibility
10,000+ meters
Flight Rules
VFR
Cloud Levels
  • Scattered at 6,000' AGL
  • Broken at 9,000' AGL
Temperature
14°C / 57°F
Dewpoint
12°C / 54°F
Humidity
88%
Altimeter
29.97" Hg
Pressure
1014.92 hPa
Previous

46 mins ago

BKPR 270230Z VRB02KT 9999 -RA FEW060 BKN090 14/11 Q1015 NOSIG
Observed
May-27 @ 02:30 UTC
Wind
  • Variable at 2 KTS
Visibility
10,000+ meters
Flight Rules
VFR
Conditions
Light Rain
Cloud Levels
  • Few at 6,000' AGL
  • Broken at 9,000' AGL
Temperature
14°C / 57°F
Dewpoint
11°C / 52°F
Humidity
82%
Altimeter
29.97" Hg
Pressure
1014.92 hPa
Previous

1 hour ago

BKPR 270200Z VRB02KT 9999 -RA SCT075 BKN095 14/11 Q1015 NOSIG
Observed
May-27 @ 02:00 UTC
Wind
  • Variable at 2 KTS
Visibility
10,000+ meters
Flight Rules
VFR
Conditions
Light Rain
Cloud Levels
  • Scattered at 7,500' AGL
  • Broken at 9,500' AGL
Temperature
14°C / 57°F
Dewpoint
11°C / 52°F
Humidity
82%
Altimeter
29.97" Hg
Pressure
1014.92 hPa